Terminal Aerodrome Forecast
Issued by NWS Newport/Morehead City, NC

Home | Current Version | Previous Version | Text Only | Print | Product List | Glossary On
Versions: 1 2 3 4 5 6 7 8 9 10 11 12 13 14
927
FTUS42 KMHX 241725
TAFEWN
TAF
KEWN 241725Z 2418/2518 03006KT P6SM FEW050
     FM250800 04005KT P6SM SCT007 BKN015
     FM251600 04009KT P6SM SCT025 BKN040=

USA.gov is the U.S. government's official web portal to all federal, state and local government web resources and services.